Terminal Aerodrome Forecast
Issued by NWS Cleveland, OH

Home | Current Version | Previous Version | Graphics & Text | Print | Product List | Glossary On
Versions: 1 2 3 4 5 6 7 8 9 10 11 12 13 14 15 16 17
000
FTUS41 KCLE 190500
TAFCAK
TAF
KCAK 190520Z 1906/2006 36008KT P6SM OVC015
      TEMPO 1906/1910 5SM -RA BR OVC035
     FM191000 36008KT P6SM -RA OVC025
      TEMPO 1910/1914 5SM -RA BR OVC035
     FM191400 30006KT P6SM SCT035
      TEMPO 1914/1918 BKN035
     FM191800 27008KT P6SM SCT250
     FM200200 22005KT P6SM BKN250=

USA.gov is the U.S. government's official web portal to all federal, state and local government web resources and services.